Millers Falls, Massachusetts
Current Conditions -  °F | °C
As of 2:52 AM on Thursday 23 Oct 2014 (Local Time) from KORE Reporting Station
Heavy Rain Heavy Rain  
Wind Chill: 41°   Ceiling: 2100
Heat Index: 47°   Visibility: 4mi
Dew Point: 45°   Wind: 15mph
Humidity: 93%   Direction: 350°N
Pressure: 29.82"   Gusts: 20mph
Location:  42.5736°N, 72.4889°W
Report Text: KORE 230652Z AUTO 35013G17KT 4SM +RA BR SCT016 BKN021 OVC027 08/07 A2982 RMK AO2 PRESFR SLP101 P0028 T00830072
Loading
Personal Weather Stations






























Interactive Weather Map
Tropical Storm Tracking
New forecast layout! Learn more

10-Day Weather Forecast

Advertisements
Track Severe Weather on mobile